sensor_id;sensor_type;location;lat;lon;timestamp;P1;durP1;ratioP1;P2;durP2;ratioP2
76069;SDS011;64768;51.738;5.852;2023-03-23T00:23:08;2.13;;;1.38;;
76069;SDS011;64768;51.738;5.852;2023-03-23T00:34:03;3.25;;;2.03;;
76069;SDS011;64768;51.738;5.852;2023-03-23T00:37:01;6.85;;;3.40;;
76069;SDS011;64768;51.738;5.852;2023-03-23T00:39:49;4.15;;;2.17;;
76069;SDS011;64768;51.738;5.852;2023-03-23T01:02:40;3.90;;;2.35;;
76069;SDS011;64768;51.738;5.852;2023-03-23T01:05:44;5.32;;;2.95;;
76069;SDS011;64768;51.738;5.852;2023-03-23T01:11:48;4.88;;;2.72;;
76069;SDS011;64768;51.738;5.852;2023-03-23T01:38:10;8.13;;;3.00;;
76069;SDS011;64768;51.738;5.852;2023-03-23T01:41:37;4.72;;;3.78;;
76069;SDS011;64768;51.738;5.852;2023-03-23T03:49:14;4.93;;;2.60;;
76069;SDS011;64768;51.738;5.852;2023-03-23T03:52:36;3.97;;;2.30;;
76069;SDS011;64768;51.738;5.852;2023-03-23T03:55:36;3.88;;;2.90;;
76069;SDS011;64768;51.738;5.852;2023-03-23T03:58:50;5.20;;;3.33;;
76069;SDS011;64768;51.738;5.852;2023-03-23T04:01:57;4.40;;;3.05;;
76069;SDS011;64768;51.738;5.852;2023-03-23T04:04:59;3.42;;;2.10;;
76069;SDS011;64768;51.738;5.852;2023-03-23T04:38:50;4.32;;;2.20;;
76069;SDS011;64768;51.738;5.852;2023-03-23T04:41:09;4.03;;;1.98;;
76069;SDS011;64768;51.738;5.852;2023-03-23T04:44:24;4.70;;;2.72;;
76069;SDS011;64768;51.738;5.852;2023-03-23T04:47:22;4.65;;;3.10;;
76069;SDS011;64768;51.738;5.852;2023-03-23T04:50:36;2.72;;;1.65;;
76069;SDS011;64768;51.738;5.852;2023-03-23T04:53:37;7.07;;;2.70;;
76069;SDS011;64768;51.738;5.852;2023-03-23T04:56:54;4.30;;;1.88;;
76069;SDS011;64768;51.738;5.852;2023-03-23T05:03:00;3.83;;;1.83;;
76069;SDS011;64768;51.738;5.852;2023-03-23T05:15:35;4.03;;;1.80;;
76069;SDS011;64768;51.738;5.852;2023-03-23T05:21:29;5.30;;;1.77;;
76069;SDS011;64768;51.738;5.852;2023-03-23T05:24:33;4.80;;;2.15;;
76069;SDS011;64768;51.738;5.852;2023-03-23T05:31:11;6.20;;;3.40;;
76069;SDS011;64768;51.738;5.852;2023-03-23T06:00:27;4.30;;;2.10;;
76069;SDS011;64768;51.738;5.852;2023-03-23T06:36:54;5.63;;;1.83;;
76069;SDS011;64768;51.738;5.852;2023-03-23T06:42:09;4.05;;;1.73;;
76069;SDS011;64768;51.738;5.852;2023-03-23T06:44:41;2.28;;;1.15;;
76069;SDS011;64768;51.738;5.852;2023-03-23T06:47:15;8.98;;;2.42;;
76069;SDS011;64768;51.738;5.852;2023-03-23T06:49:54;7.72;;;2.22;;
76069;SDS011;64768;51.738;5.852;2023-03-23T06:52:44;4.60;;;2.00;;
76069;SDS011;64768;51.738;5.852;2023-03-23T06:55:17;5.72;;;1.92;;
76069;SDS011;64768;51.738;5.852;2023-03-23T06:57:49;5.78;;;2.00;;
76069;SDS011;64768;51.738;5.852;2023-03-23T07:00:21;7.03;;;1.92;;
76069;SDS011;64768;51.738;5.852;2023-03-23T07:02:57;6.85;;;2.08;;
76069;SDS011;64768;51.738;5.852;2023-03-23T07:13:33;7.20;;;1.80;;
76069;SDS011;64768;51.738;5.852;2023-03-23T07:16:15;5.18;;;2.15;;
76069;SDS011;64768;51.738;5.852;2023-03-23T07:18:47;2.55;;;1.10;;
76069;SDS011;64768;51.738;5.852;2023-03-23T07:21:24;5.90;;;1.70;;
76069;SDS011;64768;51.738;5.852;2023-03-23T07:24:11;2.78;;;1.35;;
76069;SDS011;64768;51.738;5.852;2023-03-23T07:26:47;4.78;;;1.40;;
76069;SDS011;64768;51.738;5.852;2023-03-23T07:29:33;6.68;;;1.65;;
76069;SDS011;64768;51.738;5.852;2023-03-23T07:32:11;4.00;;;1.38;;
76069;SDS011;64768;51.738;5.852;2023-03-23T07:34:56;3.95;;;1.38;;
76069;SDS011;64768;51.738;5.852;2023-03-23T07:37:30;10.68;;;2.15;;
76069;SDS011;64768;51.738;5.852;2023-03-23T07:40:14;3.67;;;1.52;;
76069;SDS011;64768;51.738;5.852;2023-03-23T07:42:51;3.63;;;1.23;;
76069;SDS011;64768;51.738;5.852;2023-03-23T07:45:33;3.20;;;1.10;;
76069;SDS011;64768;51.738;5.852;2023-03-23T07:48:14;11.57;;;2.70;;
76069;SDS011;64768;51.738;5.852;2023-03-23T07:50:54;5.85;;;1.80;;
76069;SDS011;64768;51.738;5.852;2023-03-23T07:53:42;7.70;;;1.48;;
76069;SDS011;64768;51.738;5.852;2023-03-23T07:56:29;4.72;;;1.35;;
76069;SDS011;64768;51.738;5.852;2023-03-23T07:59:43;2.33;;;1.23;;
76069;SDS011;64768;51.738;5.852;2023-03-23T08:05:47;4.85;;;1.10;;
76069;SDS011;64768;51.738;5.852;2023-03-23T08:08:45;2.70;;;1.10;;
76069;SDS011;64768;51.738;5.852;2023-03-23T08:11:42;5.13;;;1.20;;
76069;SDS011;64768;51.738;5.852;2023-03-23T08:14:16;2.90;;;0.90;;
76069;SDS011;64768;51.738;5.852;2023-03-23T08:16:51;2.70;;;0.95;;
76069;SDS011;64768;51.738;5.852;2023-03-23T08:19:33;4.15;;;1.48;;
76069;SDS011;64768;51.738;5.852;2023-03-23T08:22:18;3.95;;;1.23;;
76069;SDS011;64768;51.738;5.852;2023-03-23T08:24:57;5.32;;;1.40;;
76069;SDS011;64768;51.738;5.852;2023-03-23T08:27:33;6.00;;;1.35;;
76069;SDS011;64768;51.738;5.852;2023-03-23T08:30:13;2.00;;;0.60;;
76069;SDS011;64768;51.738;5.852;2023-03-23T08:32:57;1.63;;;0.77;;
76069;SDS011;64768;51.738;5.852;2023-03-23T08:35:41;5.20;;;0.80;;
76069;SDS011;64768;51.738;5.852;2023-03-23T08:38:18;1.52;;;0.70;;
76069;SDS011;64768;51.738;5.852;2023-03-23T08:40:56;2.58;;;0.50;;
76069;SDS011;64768;51.738;5.852;2023-03-23T08:43:32;1.63;;;0.60;;
76069;SDS011;64768;51.738;5.852;2023-03-23T08:46:17;5.80;;;1.38;;
76069;SDS011;64768;51.738;5.852;2023-03-23T08:49:10;4.80;;;1.27;;
76069;SDS011;64768;51.738;5.852;2023-03-23T08:51:59;1.23;;;0.70;;
76069;SDS011;64768;51.738;5.852;2023-03-23T09:00:24;2.60;;;0.95;;
76069;SDS011;64768;51.738;5.852;2023-03-23T09:03:13;3.50;;;1.23;;
76069;SDS011;64768;51.738;5.852;2023-03-23T09:06:00;3.25;;;1.30;;
76069;SDS011;64768;51.738;5.852;2023-03-23T09:08:47;4.78;;;1.05;;
76069;SDS011;64768;51.738;5.852;2023-03-23T09:11:38;1.90;;;0.47;;
76069;SDS011;64768;51.738;5.852;2023-03-23T09:14:24;1.90;;;0.80;;
76069;SDS011;64768;51.738;5.852;2023-03-23T09:17:36;1.70;;;0.68;;
76069;SDS011;64768;51.738;5.852;2023-03-23T09:20:17;1.70;;;0.80;;
76069;SDS011;64768;51.738;5.852;2023-03-23T09:23:03;1.73;;;0.80;;
76069;SDS011;64768;51.738;5.852;2023-03-23T09:36:49;4.47;;;0.90;;
76069;SDS011;64768;51.738;5.852;2023-03-23T09:39:26;4.13;;;1.00;;
76069;SDS011;64768;51.738;5.852;2023-03-23T09:42:14;1.13;;;0.77;;
76069;SDS011;64768;51.738;5.852;2023-03-23T09:45:08;3.58;;;0.95;;
76069;SDS011;64768;51.738;5.852;2023-03-23T09:48:05;3.85;;;0.90;;
76069;SDS011;64768;51.738;5.852;2023-03-23T09:53:55;2.58;;;0.93;;
76069;SDS011;64768;51.738;5.852;2023-03-23T09:56:57;3.90;;;1.30;;
76069;SDS011;64768;51.738;5.852;2023-03-23T10:08:01;2.75;;;0.73;;
76069;SDS011;64768;51.738;5.852;2023-03-23T10:10:49;4.05;;;0.93;;
76069;SDS011;64768;51.738;5.852;2023-03-23T10:13:39;3.92;;;0.80;;
76069;SDS011;64768;51.738;5.852;2023-03-23T10:16:33;6.00;;;1.48;;
76069;SDS011;64768;51.738;5.852;2023-03-23T10:19:15;7.50;;;1.02;;
76069;SDS011;64768;51.738;5.852;2023-03-23T10:22:03;2.10;;;0.73;;
76069;SDS011;64768;51.738;5.852;2023-03-23T10:24:50;3.35;;;1.05;;
76069;SDS011;64768;51.738;5.852;2023-03-23T10:27:42;2.20;;;0.70;;
76069;SDS011;64768;51.738;5.852;2023-03-23T10:30:22;3.72;;;0.90;;
76069;SDS011;64768;51.738;5.852;2023-03-23T10:33:02;4.95;;;1.20;;
76069;SDS011;64768;51.738;5.852;2023-03-23T10:36:05;6.05;;;1.30;;
76069;SDS011;64768;51.738;5.852;2023-03-23T10:44:19;2.58;;;1.15;;
76069;SDS011;64768;51.738;5.852;2023-03-23T10:47:11;7.43;;;1.33;;
76069;SDS011;64768;51.738;5.852;2023-03-23T10:50:10;3.05;;;1.02;;
76069;SDS011;64768;51.738;5.852;2023-03-23T11:16:41;2.95;;;1.35;;
76069;SDS011;64768;51.738;5.852;2023-03-23T11:27:55;3.15;;;1.45;;
76069;SDS011;64768;51.738;5.852;2023-03-23T11:58:42;3.25;;;1.25;;
76069;SDS011;64768;51.738;5.852;2023-03-23T12:01:32;3.47;;;1.52;;
76069;SDS011;64768;51.738;5.852;2023-03-23T12:13:46;4.80;;;1.40;;
76069;SDS011;64768;51.738;5.852;2023-03-23T12:16:37;4.40;;;1.15;;
76069;SDS011;64768;51.738;5.852;2023-03-23T12:19:27;4.07;;;1.45;;
76069;SDS011;64768;51.738;5.852;2023-03-23T12:22:21;2.35;;;1.65;;
76069;SDS011;64768;51.738;5.852;2023-03-23T12:36:46;4.35;;;1.20;;
76069;SDS011;64768;51.738;5.852;2023-03-23T12:55:34;3.53;;;1.08;;
76069;SDS011;64768;51.738;5.852;2023-03-23T12:58:15;3.78;;;1.45;;
76069;SDS011;64768;51.738;5.852;2023-03-23T13:00:52;2.58;;;1.42;;
76069;SDS011;64768;51.738;5.852;2023-03-23T13:03:27;5.78;;;1.40;;
76069;SDS011;64768;51.738;5.852;2023-03-23T13:06:07;5.07;;;1.65;;
76069;SDS011;64768;51.738;5.852;2023-03-23T13:11:55;3.40;;;1.33;;
76069;SDS011;64768;51.738;5.852;2023-03-23T13:14:34;5.63;;;1.42;;
76069;SDS011;64768;51.738;5.852;2023-03-23T13:17:20;3.00;;;1.35;;
76069;SDS011;64768;51.738;5.852;2023-03-23T13:20:31;5.30;;;1.63;;
76069;SDS011;64768;51.738;5.852;2023-03-23T13:23:24;4.30;;;1.23;;
76069;SDS011;64768;51.738;5.852;2023-03-23T13:26:11;2.15;;;0.95;;
76069;SDS011;64768;51.738;5.852;2023-03-23T13:29:11;3.75;;;1.15;;
76069;SDS011;64768;51.738;5.852;2023-03-23T13:32:21;4.70;;;1.13;;
76069;SDS011;64768;51.738;5.852;2023-03-23T13:35:05;2.60;;;1.40;;
76069;SDS011;64768;51.738;5.852;2023-03-23T13:37:49;5.00;;;1.50;;
76069;SDS011;64768;51.738;5.852;2023-03-23T13:40:30;4.22;;;1.33;;
76069;SDS011;64768;51.738;5.852;2023-03-23T13:43:09;3.78;;;1.23;;
76069;SDS011;64768;51.738;5.852;2023-03-23T13:46:08;5.93;;;1.80;;
76069;SDS011;64768;51.738;5.852;2023-03-23T14:06:30;3.47;;;1.20;;
76069;SDS011;64768;51.738;5.852;2023-03-23T14:09:26;9.60;;;1.73;;
76069;SDS011;64768;51.738;5.852;2023-03-23T14:15:11;3.63;;;1.48;;
76069;SDS011;64768;51.738;5.852;2023-03-23T14:17:43;4.00;;;1.42;;
76069;SDS011;64768;51.738;5.852;2023-03-23T14:20:47;7.50;;;2.13;;
76069;SDS011;64768;51.738;5.852;2023-03-23T14:26:20;7.75;;;2.08;;
76069;SDS011;64768;51.738;5.852;2023-03-23T14:39:38;4.20;;;1.50;;
76069;SDS011;64768;51.738;5.852;2023-03-23T14:42:18;4.47;;;1.13;;
76069;SDS011;64768;51.738;5.852;2023-03-23T14:44:59;6.93;;;1.67;;
76069;SDS011;64768;51.738;5.852;2023-03-23T14:47:44;5.68;;;1.83;;
76069;SDS011;64768;51.738;5.852;2023-03-23T14:50:29;2.88;;;1.08;;
76069;SDS011;64768;51.738;5.852;2023-03-23T14:53:18;4.20;;;1.65;;
76069;SDS011;64768;51.738;5.852;2023-03-23T14:56:06;5.18;;;1.45;;
76069;SDS011;64768;51.738;5.852;2023-03-23T14:58:47;4.53;;;1.20;;
76069;SDS011;64768;51.738;5.852;2023-03-23T15:01:23;4.15;;;1.20;;
76069;SDS011;64768;51.738;5.852;2023-03-23T15:03:58;4.43;;;1.90;;
76069;SDS011;64768;51.738;5.852;2023-03-23T15:06:47;4.85;;;2.33;;
76069;SDS011;64768;51.738;5.852;2023-03-23T15:09:34;4.72;;;1.60;;
76069;SDS011;64768;51.738;5.852;2023-03-23T15:15:24;5.25;;;1.50;;
76069;SDS011;64768;51.738;5.852;2023-03-23T15:18:20;3.53;;;1.40;;
76069;SDS011;64768;51.738;5.852;2023-03-23T15:24:18;3.67;;;1.48;;
76069;SDS011;64768;51.738;5.852;2023-03-23T15:27:11;6.03;;;1.70;;
76069;SDS011;64768;51.738;5.852;2023-03-23T15:29:47;4.50;;;1.60;;
76069;SDS011;64768;51.738;5.852;2023-03-23T15:35:13;5.00;;;1.90;;
76069;SDS011;64768;51.738;5.852;2023-03-23T15:37:57;4.13;;;1.48;;
76069;SDS011;64768;51.738;5.852;2023-03-23T15:40:43;6.50;;;1.63;;
76069;SDS011;64768;51.738;5.852;2023-03-23T15:46:20;4.63;;;1.65;;
76069;SDS011;64768;51.738;5.852;2023-03-23T15:49:04;6.30;;;1.92;;
76069;SDS011;64768;51.738;5.852;2023-03-23T15:51:55;5.63;;;1.88;;
76069;SDS011;64768;51.738;5.852;2023-03-23T15:54:31;7.15;;;2.35;;
76069;SDS011;64768;51.738;5.852;2023-03-23T15:57:07;8.80;;;2.33;;
76069;SDS011;64768;51.738;5.852;2023-03-23T15:59:41;5.15;;;1.98;;
76069;SDS011;64768;51.738;5.852;2023-03-23T16:02:15;3.53;;;1.55;;
76069;SDS011;64768;51.738;5.852;2023-03-23T16:04:58;3.83;;;1.23;;
76069;SDS011;64768;51.738;5.852;2023-03-23T16:20:33;3.80;;;1.58;;
76069;SDS011;64768;51.738;5.852;2023-03-23T16:23:12;5.57;;;2.00;;
76069;SDS011;64768;51.738;5.852;2023-03-23T16:37:03;4.80;;;2.10;;
76069;SDS011;64768;51.738;5.852;2023-03-23T16:40:02;5.72;;;1.50;;
76069;SDS011;64768;51.738;5.852;2023-03-23T16:45:40;7.30;;;2.10;;
76069;SDS011;64768;51.738;5.852;2023-03-23T16:48:31;4.93;;;1.85;;
76069;SDS011;64768;51.738;5.852;2023-03-23T16:51:17;5.47;;;1.90;;
76069;SDS011;64768;51.738;5.852;2023-03-23T16:54:10;7.55;;;1.63;;
76069;SDS011;64768;51.738;5.852;2023-03-23T16:56:50;7.80;;;2.05;;
76069;SDS011;64768;51.738;5.852;2023-03-23T16:59:22;5.10;;;2.28;;
76069;SDS011;64768;51.738;5.852;2023-03-23T17:02:04;6.43;;;2.22;;
76069;SDS011;64768;51.738;5.852;2023-03-23T17:19:32;4.75;;;1.92;;
76069;SDS011;64768;51.738;5.852;2023-03-23T17:22:02;8.85;;;2.00;;
76069;SDS011;64768;51.738;5.852;2023-03-23T17:24:32;5.13;;;2.10;;
76069;SDS011;64768;51.738;5.852;2023-03-23T17:27:19;7.72;;;2.25;;
76069;SDS011;64768;51.738;5.852;2023-03-23T17:32:25;8.27;;;2.17;;
76069;SDS011;64768;51.738;5.852;2023-03-23T17:41:02;3.72;;;2.00;;
76069;SDS011;64768;51.738;5.852;2023-03-23T17:43:49;7.18;;;2.10;;
76069;SDS011;64768;51.738;5.852;2023-03-23T17:46:32;8.40;;;1.48;;
76069;SDS011;64768;51.738;5.852;2023-03-23T17:49:22;4.70;;;2.08;;
76069;SDS011;64768;51.738;5.852;2023-03-23T17:55:22;6.50;;;2.05;;
76069;SDS011;64768;51.738;5.852;2023-03-23T17:58:11;7.45;;;2.30;;
76069;SDS011;64768;51.738;5.852;2023-03-23T18:00:47;7.35;;;2.40;;
76069;SDS011;64768;51.738;5.852;2023-03-23T18:03:21;2.70;;;1.67;;
76069;SDS011;64768;51.738;5.852;2023-03-23T18:05:58;7.65;;;3.28;;
76069;SDS011;64768;51.738;5.852;2023-03-23T18:08:39;5.47;;;2.10;;
76069;SDS011;64768;51.738;5.852;2023-03-23T18:11:31;8.95;;;2.95;;
76069;SDS011;64768;51.738;5.852;2023-03-23T18:14:02;6.80;;;2.60;;
76069;SDS011;64768;51.738;5.852;2023-03-23T18:16:37;6.72;;;2.13;;
76069;SDS011;64768;51.738;5.852;2023-03-23T18:19:28;9.20;;;3.50;;
76069;SDS011;64768;51.738;5.852;2023-03-23T18:22:13;12.05;;;2.45;;
76069;SDS011;64768;51.738;5.852;2023-03-23T18:24:55;6.63;;;2.50;;
76069;SDS011;64768;51.738;5.852;2023-03-23T18:27:27;3.28;;;2.10;;
76069;SDS011;64768;51.738;5.852;2023-03-23T18:29:58;12.52;;;3.58;;
76069;SDS011;64768;51.738;5.852;2023-03-23T18:35:08;7.90;;;3.05;;
76069;SDS011;64768;51.738;5.852;2023-03-23T18:38:11;8.18;;;3.28;;
76069;SDS011;64768;51.738;5.852;2023-03-23T18:41:00;7.85;;;2.72;;
76069;SDS011;64768;51.738;5.852;2023-03-23T18:43:46;5.03;;;2.45;;
76069;SDS011;64768;51.738;5.852;2023-03-23T18:49:05;6.63;;;3.70;;
76069;SDS011;64768;51.738;5.852;2023-03-23T18:51:55;4.43;;;2.28;;
76069;SDS011;64768;51.738;5.852;2023-03-23T18:54:59;5.45;;;2.60;;
76069;SDS011;64768;51.738;5.852;2023-03-23T19:00:55;9.98;;;3.00;;
76069;SDS011;64768;51.738;5.852;2023-03-23T19:03:44;6.38;;;2.08;;
76069;SDS011;64768;51.738;5.852;2023-03-23T19:06:22;9.73;;;3.25;;
76069;SDS011;64768;51.738;5.852;2023-03-23T19:09:10;5.70;;;2.17;;
76069;SDS011;64768;51.738;5.852;2023-03-23T19:11:43;6.68;;;2.50;;
76069;SDS011;64768;51.738;5.852;2023-03-23T19:14:23;6.50;;;2.00;;
76069;SDS011;64768;51.738;5.852;2023-03-23T19:16:59;7.00;;;2.88;;
76069;SDS011;64768;51.738;5.852;2023-03-23T19:19:31;5.15;;;2.35;;
76069;SDS011;64768;51.738;5.852;2023-03-23T19:22:13;3.63;;;2.15;;
76069;SDS011;64768;51.738;5.852;2023-03-23T19:24:59;5.15;;;2.60;;
76069;SDS011;64768;51.738;5.852;2023-03-23T19:27:46;10.98;;;3.13;;
76069;SDS011;64768;51.738;5.852;2023-03-23T19:30:41;8.77;;;3.08;;
76069;SDS011;64768;51.738;5.852;2023-03-23T19:33:30;7.93;;;2.80;;
76069;SDS011;64768;51.738;5.852;2023-03-23T19:36:02;10.82;;;3.53;;
76069;SDS011;64768;51.738;5.852;2023-03-23T19:38:39;7.93;;;3.20;;
76069;SDS011;64768;51.738;5.852;2023-03-23T19:44:41;6.60;;;2.92;;
76069;SDS011;64768;51.738;5.852;2023-03-23T19:47:22;9.40;;;3.70;;
